Etusivu
METAR-TAF:

METAR-TAF

Lentoasemat :

Timimoun, Algeria

Leveyspiiri: 29-15N, Pituuspiiri: 000-17E, korkeus merenpinnasta: 312 m

Tämänhetkinen sää

Tämä raportti tehtiin 18 minuuttia sitten, kello 21.00 UTC
Tuuli 8 kn koillisesta
Lämpötila 19°C
Kosteus 40%
Ilmanpaine 1017 hPa
Näkyvyys 10 km tai enemmän
Muutamia pilviä 4600 ft:n korkeudessa

METAR: DAUT 142100Z 04008KT 9999 FEW046 19/05 Q1017

Aika: 22:18 (21:18 UTC)

Sääennuste

Tämä raportti tehtiin 1 tunti ja 18 minuuttia sitten, kello 20.00 UTC
Ennuste voimassa 14. päivästä klo 21 UTC - 15. päivään klo 06 UTC
Tuuli 12 kn pohjoisesta
Näkyvyys 10 km tai enemmän
Muutamia pilviä 4600 ft:n korkeudessa

TAF: DAUT 142000Z 1421/1506 35012KT 9999 FEW046

Säähavainnot ja -ennusteet yli 4000 lentoasemalta (METAR- ja TAF-raportit).

Käytössä olevat sääasemat on merkitty karttaan keltaisilla ja punaisilla pisteillä.

Aseta hiiri pisteen päälle nähdäksesi sääaseman nimen.

Klikkaa sitten nähdäksesi säähavainnot ja -ennusteet.

Kartan vaihtaminen: klikkaa mustalla rastilla varustettuja vihreitä pisteitä, niin voit zoomata sisään; viivalla varustettua vihreää pistettä, niin voit zoomata ulos tai vihreitä nuolia, niin pääset viereisille kartoille.


METAR-TAF: